sensor_id;sensor_type;location;lat;lon;timestamp;temperature;humidity
23683;DHT22;24897;53.514;10.482;2023-02-01T00:02:20;5.10;99.90
23683;DHT22;24897;53.514;10.482;2023-02-01T00:05:05;5.10;99.90
23683;DHT22;24897;53.514;10.482;2023-02-01T00:07:49;5.20;99.90
23683;DHT22;24897;53.514;10.482;2023-02-01T00:10:34;5.20;99.90
23683;DHT22;24897;53.514;10.482;2023-02-01T00:13:18;5.20;99.90
23683;DHT22;24897;53.514;10.482;2023-02-01T00:16:10;5.30;99.90
23683;DHT22;24897;53.514;10.482;2023-02-01T00:19:09;5.30;99.90
23683;DHT22;24897;53.514;10.482;2023-02-01T00:21:53;5.40;99.90
23683;DHT22;24897;53.514;10.482;2023-02-01T00:24:38;5.40;99.90
23683;DHT22;24897;53.514;10.482;2023-02-01T00:27:22;5.40;99.90
23683;DHT22;24897;53.514;10.482;2023-02-01T00:30:07;5.40;99.90
23683;DHT22;24897;53.514;10.482;2023-02-01T00:32:51;5.40;99.90
23683;DHT22;24897;53.514;10.482;2023-02-01T00:35:36;5.40;99.90
23683;DHT22;24897;53.514;10.482;2023-02-01T00:38:19;5.40;99.90
23683;DHT22;24897;53.514;10.482;2023-02-01T00:41:06;5.10;99.90
23683;DHT22;24897;53.514;10.482;2023-02-01T00:43:50;5.10;99.90
23683;DHT22;24897;53.514;10.482;2023-02-01T00:46:35;5.10;99.90
23683;DHT22;24897;53.514;10.482;2023-02-01T00:49:19;5.10;99.90
23683;DHT22;24897;53.514;10.482;2023-02-01T00:52:04;5.20;99.90
23683;DHT22;24897;53.514;10.482;2023-02-01T00:54:48;5.10;99.90
23683;DHT22;24897;53.514;10.482;2023-02-01T00:57:35;5.20;99.90
23683;DHT22;24897;53.514;10.482;2023-02-01T01:00:20;5.20;99.90
23683;DHT22;24897;53.514;10.482;2023-02-01T01:03:04;5.20;99.90
23683;DHT22;24897;53.514;10.482;2023-02-01T01:06:04;5.30;99.90
23683;DHT22;24897;53.514;10.482;2023-02-01T01:08:49;5.40;99.90
23683;DHT22;24897;53.514;10.482;2023-02-01T01:11:36;5.40;99.90
23683;DHT22;24897;53.514;10.482;2023-02-01T01:14:21;5.30;99.90
23683;DHT22;24897;53.514;10.482;2023-02-01T01:17:05;5.50;99.90
23683;DHT22;24897;53.514;10.482;2023-02-01T01:19:49;5.50;99.90
23683;DHT22;24897;53.514;10.482;2023-02-01T01:22:33;5.50;99.90
23683;DHT22;24897;53.514;10.482;2023-02-01T01:25:17;5.80;99.90
23683;DHT22;24897;53.514;10.482;2023-02-01T01:28:02;5.60;99.90
23683;DHT22;24897;53.514;10.482;2023-02-01T01:30:46;5.60;99.90
23683;DHT22;24897;53.514;10.482;2023-02-01T01:33:31;5.80;99.90
23683;DHT22;24897;53.514;10.482;2023-02-01T01:36:15;5.80;99.90
23683;DHT22;24897;53.514;10.482;2023-02-01T01:38:59;5.70;99.90
23683;DHT22;24897;53.514;10.482;2023-02-01T01:41:44;5.70;99.90
23683;DHT22;24897;53.514;10.482;2023-02-01T01:47:44;5.70;99.90
23683;DHT22;24897;53.514;10.482;2023-02-01T01:51:06;5.70;99.90
23683;DHT22;24897;53.514;10.482;2023-02-01T01:54:17;5.70;99.90
23683;DHT22;24897;53.514;10.482;2023-02-01T01:57:06;5.80;99.90
23683;DHT22;24897;53.514;10.482;2023-02-01T02:00:05;5.90;99.90
23683;DHT22;24897;53.514;10.482;2023-02-01T02:02:57;5.80;99.90
23683;DHT22;24897;53.514;10.482;2023-02-01T02:05:43;6.30;99.90
23683;DHT22;24897;53.514;10.482;2023-02-01T02:08:28;5.80;99.90
23683;DHT22;24897;53.514;10.482;2023-02-01T02:11:16;5.80;99.90
23683;DHT22;24897;53.514;10.482;2023-02-01T02:14:01;5.90;99.90
23683;DHT22;24897;53.514;10.482;2023-02-01T02:17:15;5.90;99.90
23683;DHT22;24897;53.514;10.482;2023-02-01T02:36:07;6.00;99.90
23683;DHT22;24897;53.514;10.482;2023-02-01T02:44:58;6.00;99.90
23683;DHT22;24897;53.514;10.482;2023-02-01T02:48:18;6.00;99.90
23683;DHT22;24897;53.514;10.482;2023-02-01T02:54:20;5.90;99.90
23683;DHT22;24897;53.514;10.482;2023-02-01T02:57:32;5.90;99.90
23683;DHT22;24897;53.514;10.482;2023-02-01T03:00:35;5.90;99.90
23683;DHT22;24897;53.514;10.482;2023-02-01T03:03:41;5.80;99.90
23683;DHT22;24897;53.514;10.482;2023-02-01T03:06:45;5.90;99.90
23683;DHT22;24897;53.514;10.482;2023-02-01T03:09:35;5.90;99.90
23683;DHT22;24897;53.514;10.482;2023-02-01T03:12:21;5.90;99.90
23683;DHT22;24897;53.514;10.482;2023-02-01T03:15:30;6.00;99.90
23683;DHT22;24897;53.514;10.482;2023-02-01T03:18:26;6.00;99.90
23683;DHT22;24897;53.514;10.482;2023-02-01T03:21:23;5.90;99.90
23683;DHT22;24897;53.514;10.482;2023-02-01T03:24:23;5.80;99.90
23683;DHT22;24897;53.514;10.482;2023-02-01T03:32:57;5.70;99.90
23683;DHT22;24897;53.514;10.482;2023-02-01T03:41:51;5.60;99.90
23683;DHT22;24897;53.514;10.482;2023-02-01T03:44:40;6.30;99.90
23683;DHT22;24897;53.514;10.482;2023-02-01T03:47:30;5.50;99.90
23683;DHT22;24897;53.514;10.482;2023-02-01T03:50:18;5.50;99.90
23683;DHT22;24897;53.514;10.482;2023-02-01T03:53:14;5.60;99.90
23683;DHT22;24897;53.514;10.482;2023-02-01T03:56:00;5.30;99.90
23683;DHT22;24897;53.514;10.482;2023-02-01T03:58:45;5.30;99.90
23683;DHT22;24897;53.514;10.482;2023-02-01T04:01:42;5.20;99.90
23683;DHT22;24897;53.514;10.482;2023-02-01T04:04:27;5.10;99.90
23683;DHT22;24897;53.514;10.482;2023-02-01T04:07:11;5.20;99.90
23683;DHT22;24897;53.514;10.482;2023-02-01T04:09:56;5.10;99.90
23683;DHT22;24897;53.514;10.482;2023-02-01T04:12:40;5.10;99.90
23683;DHT22;24897;53.514;10.482;2023-02-01T04:15:24;5.10;99.90
23683;DHT22;24897;53.514;10.482;2023-02-01T04:18:08;5.00;99.90
23683;DHT22;24897;53.514;10.482;2023-02-01T04:20:52;5.10;99.90
23683;DHT22;24897;53.514;10.482;2023-02-01T04:23:36;5.00;99.90
23683;DHT22;24897;53.514;10.482;2023-02-01T04:26:21;5.00;99.90
23683;DHT22;24897;53.514;10.482;2023-02-01T04:29:05;5.00;99.90
23683;DHT22;24897;53.514;10.482;2023-02-01T04:31:49;5.10;99.90
23683;DHT22;24897;53.514;10.482;2023-02-01T04:34:34;5.10;99.90
23683;DHT22;24897;53.514;10.482;2023-02-01T04:37:18;5.10;99.90
23683;DHT22;24897;53.514;10.482;2023-02-01T04:40:03;5.10;99.90
23683;DHT22;24897;53.514;10.482;2023-02-01T04:42:47;5.30;99.90
23683;DHT22;24897;53.514;10.482;2023-02-01T04:45:31;4.80;99.90
23683;DHT22;24897;53.514;10.482;2023-02-01T04:48:16;5.10;99.90
23683;DHT22;24897;53.514;10.482;2023-02-01T04:51:01;4.90;99.90
23683;DHT22;24897;53.514;10.482;2023-02-01T04:53:45;5.20;99.90
23683;DHT22;24897;53.514;10.482;2023-02-01T04:56:29;5.00;99.90
23683;DHT22;24897;53.514;10.482;2023-02-01T04:59:13;5.00;99.90
23683;DHT22;24897;53.514;10.482;2023-02-01T05:01:58;4.80;99.90
23683;DHT22;24897;53.514;10.482;2023-02-01T05:04:42;5.00;99.90
23683;DHT22;24897;53.514;10.482;2023-02-01T05:07:26;4.90;99.90
23683;DHT22;24897;53.514;10.482;2023-02-01T05:10:10;5.00;99.90
23683;DHT22;24897;53.514;10.482;2023-02-01T05:12:54;4.80;99.90
23683;DHT22;24897;53.514;10.482;2023-02-01T05:15:57;5.20;99.90
23683;DHT22;24897;53.514;10.482;2023-02-01T05:18:41;5.30;99.90
23683;DHT22;24897;53.514;10.482;2023-02-01T05:21:26;4.90;99.90
23683;DHT22;24897;53.514;10.482;2023-02-01T05:24:10;4.90;99.90
23683;DHT22;24897;53.514;10.482;2023-02-01T05:26:54;4.90;99.90
23683;DHT22;24897;53.514;10.482;2023-02-01T05:29:38;4.90;99.90
23683;DHT22;24897;53.514;10.482;2023-02-01T05:32:22;4.80;99.90
23683;DHT22;24897;53.514;10.482;2023-02-01T05:35:07;4.80;99.90
23683;DHT22;24897;53.514;10.482;2023-02-01T05:37:51;4.70;99.90
23683;DHT22;24897;53.514;10.482;2023-02-01T05:40:35;4.30;99.90
23683;DHT22;24897;53.514;10.482;2023-02-01T05:43:19;4.40;99.90
23683;DHT22;24897;53.514;10.482;2023-02-01T05:46:04;3.40;99.90
23683;DHT22;24897;53.514;10.482;2023-02-01T05:48:48;4.20;99.90
23683;DHT22;24897;53.514;10.482;2023-02-01T05:51:32;4.10;99.90
23683;DHT22;24897;53.514;10.482;2023-02-01T05:54:17;4.10;99.90
23683;DHT22;24897;53.514;10.482;2023-02-01T05:57:01;4.00;99.90
23683;DHT22;24897;53.514;10.482;2023-02-01T05:59:46;4.00;99.90
23683;DHT22;24897;53.514;10.482;2023-02-01T06:02:31;4.00;99.90
23683;DHT22;24897;53.514;10.482;2023-02-01T06:05:15;3.90;99.90
23683;DHT22;24897;53.514;10.482;2023-02-01T06:08:00;3.80;99.90
23683;DHT22;24897;53.514;10.482;2023-02-01T06:10:44;3.20;99.90
23683;DHT22;24897;53.514;10.482;2023-02-01T06:13:29;2.20;99.90
23683;DHT22;24897;53.514;10.482;2023-02-01T06:16:13;3.40;99.90
23683;DHT22;24897;53.514;10.482;2023-02-01T06:18:59;3.50;99.90
23683;DHT22;24897;53.514;10.482;2023-02-01T06:21:43;3.30;99.90
23683;DHT22;24897;53.514;10.482;2023-02-01T06:24:27;3.10;99.90
23683;DHT22;24897;53.514;10.482;2023-02-01T06:27:11;3.00;99.90
23683;DHT22;24897;53.514;10.482;2023-02-01T06:29:56;3.40;99.90
23683;DHT22;24897;53.514;10.482;2023-02-01T06:32:40;3.50;99.90
23683;DHT22;24897;53.514;10.482;2023-02-01T06:35:24;3.40;99.90
23683;DHT22;24897;53.514;10.482;2023-02-01T06:38:11;3.40;99.90
23683;DHT22;24897;53.514;10.482;2023-02-01T06:40:56;3.40;99.90
23683;DHT22;24897;53.514;10.482;2023-02-01T06:43:41;3.00;99.90
23683;DHT22;24897;53.514;10.482;2023-02-01T06:46:25;3.50;99.90
23683;DHT22;24897;53.514;10.482;2023-02-01T06:49:09;3.60;99.90
23683;DHT22;24897;53.514;10.482;2023-02-01T06:51:53;3.40;99.90
23683;DHT22;24897;53.514;10.482;2023-02-01T06:54:37;3.60;99.90
23683;DHT22;24897;53.514;10.482;2023-02-01T06:57:22;3.60;99.90
23683;DHT22;24897;53.514;10.482;2023-02-01T07:00:06;4.10;99.90
23683;DHT22;24897;53.514;10.482;2023-02-01T07:02:51;3.70;99.90
23683;DHT22;24897;53.514;10.482;2023-02-01T07:05:34;3.70;99.90
23683;DHT22;24897;53.514;10.482;2023-02-01T07:08:19;5.10;99.90
23683;DHT22;24897;53.514;10.482;2023-02-01T07:11:04;3.70;99.90
23683;DHT22;24897;53.514;10.482;2023-02-01T07:13:49;4.10;99.90
23683;DHT22;24897;53.514;10.482;2023-02-01T07:16:34;3.70;99.90
23683;DHT22;24897;53.514;10.482;2023-02-01T07:19:18;3.70;99.90
23683;DHT22;24897;53.514;10.482;2023-02-01T07:22:02;3.80;99.90
23683;DHT22;24897;53.514;10.482;2023-02-01T07:24:46;3.80;99.90
23683;DHT22;24897;53.514;10.482;2023-02-01T07:27:30;3.90;99.90
23683;DHT22;24897;53.514;10.482;2023-02-01T07:30:14;3.90;99.90
23683;DHT22;24897;53.514;10.482;2023-02-01T07:32:58;4.00;99.90
23683;DHT22;24897;53.514;10.482;2023-02-01T07:35:45;4.10;99.90
23683;DHT22;24897;53.514;10.482;2023-02-01T07:38:30;4.30;99.90
23683;DHT22;24897;53.514;10.482;2023-02-01T07:41:14;4.30;99.90
23683;DHT22;24897;53.514;10.482;2023-02-01T07:43:58;4.30;99.90
23683;DHT22;24897;53.514;10.482;2023-02-01T07:46:43;4.40;99.90
23683;DHT22;24897;53.514;10.482;2023-02-01T07:49:27;4.70;99.90
23683;DHT22;24897;53.514;10.482;2023-02-01T07:52:11;4.60;99.90
23683;DHT22;24897;53.514;10.482;2023-02-01T07:54:56;4.70;99.90
23683;DHT22;24897;53.514;10.482;2023-02-01T07:57:40;4.70;99.90
23683;DHT22;24897;53.514;10.482;2023-02-01T08:00:26;4.80;99.90
23683;DHT22;24897;53.514;10.482;2023-02-01T08:03:29;5.30;99.90
23683;DHT22;24897;53.514;10.482;2023-02-01T08:06:13;5.00;99.90
23683;DHT22;24897;53.514;10.482;2023-02-01T08:08:58;5.10;99.90
23683;DHT22;24897;53.514;10.482;2023-02-01T08:11:42;5.10;99.90
23683;DHT22;24897;53.514;10.482;2023-02-01T08:14:26;5.10;99.90
23683;DHT22;24897;53.514;10.482;2023-02-01T08:17:10;5.00;99.90
23683;DHT22;24897;53.514;10.482;2023-02-01T08:19:54;5.00;99.90
23683;DHT22;24897;53.514;10.482;2023-02-01T08:22:39;5.00;99.90
23683;DHT22;24897;53.514;10.482;2023-02-01T08:25:23;5.10;99.90
23683;DHT22;24897;53.514;10.482;2023-02-01T08:28:08;5.10;99.90
23683;DHT22;24897;53.514;10.482;2023-02-01T08:30:53;5.10;99.90
23683;DHT22;24897;53.514;10.482;2023-02-01T08:33:37;5.10;99.90
23683;DHT22;24897;53.514;10.482;2023-02-01T08:36:23;5.10;99.90
23683;DHT22;24897;53.514;10.482;2023-02-01T08:39:09;5.10;99.90
23683;DHT22;24897;53.514;10.482;2023-02-01T08:41:53;5.20;99.90
23683;DHT22;24897;53.514;10.482;2023-02-01T08:44:57;5.50;99.90
23683;DHT22;24897;53.514;10.482;2023-02-01T08:47:41;5.30;99.90
23683;DHT22;24897;53.514;10.482;2023-02-01T08:50:25;5.40;99.90
23683;DHT22;24897;53.514;10.482;2023-02-01T08:53:10;5.60;99.90
23683;DHT22;24897;53.514;10.482;2023-02-01T08:55:57;5.60;99.90
23683;DHT22;24897;53.514;10.482;2023-02-01T08:58:43;5.80;99.90
23683;DHT22;24897;53.514;10.482;2023-02-01T09:01:27;5.80;99.90
23683;DHT22;24897;53.514;10.482;2023-02-01T09:04:11;5.90;99.90
23683;DHT22;24897;53.514;10.482;2023-02-01T09:06:55;6.00;99.90
23683;DHT22;24897;53.514;10.482;2023-02-01T09:09:39;6.10;99.90
23683;DHT22;24897;53.514;10.482;2023-02-01T09:12:23;6.20;99.90
23683;DHT22;24897;53.514;10.482;2023-02-01T09:15:08;6.10;99.90
23683;DHT22;24897;53.514;10.482;2023-02-01T09:17:52;6.20;99.90
23683;DHT22;24897;53.514;10.482;2023-02-01T09:20:37;6.10;99.90
23683;DHT22;24897;53.514;10.482;2023-02-01T09:23:21;6.00;99.90
23683;DHT22;24897;53.514;10.482;2023-02-01T09:26:06;5.90;99.90
23683;DHT22;24897;53.514;10.482;2023-02-01T09:28:51;6.00;99.90
23683;DHT22;24897;53.514;10.482;2023-02-01T09:31:36;6.20;99.90
23683;DHT22;24897;53.514;10.482;2023-02-01T09:34:20;6.10;99.90
23683;DHT22;24897;53.514;10.482;2023-02-01T09:37:04;6.50;99.90
23683;DHT22;24897;53.514;10.482;2023-02-01T09:39:48;6.20;99.90
23683;DHT22;24897;53.514;10.482;2023-02-01T09:42:59;6.40;99.90
23683;DHT22;24897;53.514;10.482;2023-02-01T09:46:29;6.60;99.90
23683;DHT22;24897;53.514;10.482;2023-02-01T09:49:19;6.80;99.90
23683;DHT22;24897;53.514;10.482;2023-02-01T09:52:07;7.00;99.90
23683;DHT22;24897;53.514;10.482;2023-02-01T09:55:00;7.10;99.90
23683;DHT22;24897;53.514;10.482;2023-02-01T10:01:24;7.40;99.90
23683;DHT22;24897;53.514;10.482;2023-02-01T10:04:13;7.20;99.90
23683;DHT22;24897;53.514;10.482;2023-02-01T10:10:02;7.20;99.90
23683;DHT22;24897;53.514;10.482;2023-02-01T10:21:47;6.60;99.90
23683;DHT22;24897;53.514;10.482;2023-02-01T10:25:12;6.50;99.90
23683;DHT22;24897;53.514;10.482;2023-02-01T10:27:52;6.50;99.90
23683;DHT22;24897;53.514;10.482;2023-02-01T10:30:43;6.60;99.90
23683;DHT22;24897;53.514;10.482;2023-02-01T10:33:44;6.80;99.90
23683;DHT22;24897;53.514;10.482;2023-02-01T10:36:41;6.90;99.90
23683;DHT22;24897;53.514;10.482;2023-02-01T10:39:25;6.80;99.90
23683;DHT22;24897;53.514;10.482;2023-02-01T10:42:10;6.70;99.90
23683;DHT22;24897;53.514;10.482;2023-02-01T10:44:56;6.60;99.90
23683;DHT22;24897;53.514;10.482;2023-02-01T10:47:42;6.60;99.90
23683;DHT22;24897;53.514;10.482;2023-02-01T10:50:35;6.60;99.90
23683;DHT22;24897;53.514;10.482;2023-02-01T10:53:57;6.70;99.90
23683;DHT22;24897;53.514;10.482;2023-02-01T10:56:44;7.00;99.90
23683;DHT22;24897;53.514;10.482;2023-02-01T10:59:32;7.10;99.90
23683;DHT22;24897;53.514;10.482;2023-02-01T11:02:32;6.60;99.90
23683;DHT22;24897;53.514;10.482;2023-02-01T11:05:17;6.70;99.90
23683;DHT22;24897;53.514;10.482;2023-02-01T11:08:02;6.40;99.90
23683;DHT22;24897;53.514;10.482;2023-02-01T11:10:49;6.30;99.90
23683;DHT22;24897;53.514;10.482;2023-02-01T11:13:40;6.10;99.90
23683;DHT22;24897;53.514;10.482;2023-02-01T11:16:35;6.00;99.90
23683;DHT22;24897;53.514;10.482;2023-02-01T11:19:20;6.10;99.90
23683;DHT22;24897;53.514;10.482;2023-02-01T11:22:05;6.00;99.90
23683;DHT22;24897;53.514;10.482;2023-02-01T11:24:49;6.40;99.90
23683;DHT22;24897;53.514;10.482;2023-02-01T11:27:34;6.10;99.90
23683;DHT22;24897;53.514;10.482;2023-02-01T11:33:18;5.90;99.90
23683;DHT22;24897;53.514;10.482;2023-02-01T11:36:14;6.00;99.90
23683;DHT22;24897;53.514;10.482;2023-02-01T11:42:15;6.20;99.90
23683;DHT22;24897;53.514;10.482;2023-02-01T11:45:30;6.30;99.90
23683;DHT22;24897;53.514;10.482;2023-02-01T11:48:16;6.10;99.90
23683;DHT22;24897;53.514;10.482;2023-02-01T12:10:37;6.20;99.90
23683;DHT22;24897;53.514;10.482;2023-02-01T12:16:19;7.30;99.90
23683;DHT22;24897;53.514;10.482;2023-02-01T12:19:30;6.20;99.90
23683;DHT22;24897;53.514;10.482;2023-02-01T12:22:29;6.30;99.90
23683;DHT22;24897;53.514;10.482;2023-02-01T12:34:14;6.10;99.90
23683;DHT22;24897;53.514;10.482;2023-02-01T12:43:25;5.90;99.90
23683;DHT22;24897;53.514;10.482;2023-02-01T12:46:16;5.90;99.90
23683;DHT22;24897;53.514;10.482;2023-02-01T12:49:08;6.30;99.90
23683;DHT22;24897;53.514;10.482;2023-02-01T12:51:59;5.70;99.90
23683;DHT22;24897;53.514;10.482;2023-02-01T12:54:54;5.70;99.90
23683;DHT22;24897;53.514;10.482;2023-02-01T12:57:44;5.70;99.90
23683;DHT22;24897;53.514;10.482;2023-02-01T13:00:31;5.70;99.90
23683;DHT22;24897;53.514;10.482;2023-02-01T13:06:17;5.70;99.90
23683;DHT22;24897;53.514;10.482;2023-02-01T13:12:34;5.40;99.90
23683;DHT22;24897;53.514;10.482;2023-02-01T13:15:22;5.60;99.90
23683;DHT22;24897;53.514;10.482;2023-02-01T13:18:14;5.10;99.90
23683;DHT22;24897;53.514;10.482;2023-02-01T13:21:24;5.00;99.90
23683;DHT22;24897;53.514;10.482;2023-02-01T13:27:15;4.90;99.90
23683;DHT22;24897;53.514;10.482;2023-02-01T13:30:03;5.00;99.90
23683;DHT22;24897;53.514;10.482;2023-02-01T13:42:25;4.90;99.90
23683;DHT22;24897;53.514;10.482;2023-02-01T13:45:31;4.90;99.90
23683;DHT22;24897;53.514;10.482;2023-02-01T13:48:26;5.10;99.90
23683;DHT22;24897;53.514;10.482;2023-02-01T13:51:13;5.30;99.90
23683;DHT22;24897;53.514;10.482;2023-02-01T13:53:57;5.60;99.90
23683;DHT22;24897;53.514;10.482;2023-02-01T13:56:43;5.80;99.90
23683;DHT22;24897;53.514;10.482;2023-02-01T14:08:21;5.60;99.90
23683;DHT22;24897;53.514;10.482;2023-02-01T14:11:05;5.50;99.90
23683;DHT22;24897;53.514;10.482;2023-02-01T14:13:50;5.40;99.90
23683;DHT22;24897;53.514;10.482;2023-02-01T14:16:34;5.30;99.90
23683;DHT22;24897;53.514;10.482;2023-02-01T14:19:30;5.10;99.90
23683;DHT22;24897;53.514;10.482;2023-02-01T14:25:16;5.20;99.90
23683;DHT22;24897;53.514;10.482;2023-02-01T14:28:01;4.70;99.90
23683;DHT22;24897;53.514;10.482;2023-02-01T14:30:48;4.70;99.90
23683;DHT22;24897;53.514;10.482;2023-02-01T14:33:32;4.70;99.90
23683;DHT22;24897;53.514;10.482;2023-02-01T14:36:17;4.70;99.90
23683;DHT22;24897;53.514;10.482;2023-02-01T14:39:01;4.70;99.90
23683;DHT22;24897;53.514;10.482;2023-02-01T14:41:47;4.60;99.90
23683;DHT22;24897;53.514;10.482;2023-02-01T14:44:36;4.50;99.90
23683;DHT22;24897;53.514;10.482;2023-02-01T15:01:52;4.50;99.90
23683;DHT22;24897;53.514;10.482;2023-02-01T15:04:41;4.50;99.90
23683;DHT22;24897;53.514;10.482;2023-02-01T15:07:27;4.40;99.90
23683;DHT22;24897;53.514;10.482;2023-02-01T15:10:12;4.40;99.90
23683;DHT22;24897;53.514;10.482;2023-02-01T15:12:56;4.40;99.90
23683;DHT22;24897;53.514;10.482;2023-02-01T15:15:40;4.30;99.90
23683;DHT22;24897;53.514;10.482;2023-02-01T15:18:24;4.40;99.90
23683;DHT22;24897;53.514;10.482;2023-02-01T15:21:18;4.60;99.90
23683;DHT22;24897;53.514;10.482;2023-02-01T15:24:24;4.40;99.90
23683;DHT22;24897;53.514;10.482;2023-02-01T15:27:09;4.40;99.90
23683;DHT22;24897;53.514;10.482;2023-02-01T15:29:54;4.40;99.90
23683;DHT22;24897;53.514;10.482;2023-02-01T15:32:49;4.50;99.90
23683;DHT22;24897;53.514;10.482;2023-02-01T15:35:42;4.50;99.90
23683;DHT22;24897;53.514;10.482;2023-02-01T15:41:20;4.40;99.90
23683;DHT22;24897;53.514;10.482;2023-02-01T15:44:17;4.40;99.90
23683;DHT22;24897;53.514;10.482;2023-02-01T15:47:17;4.50;99.90
23683;DHT22;24897;53.514;10.482;2023-02-01T15:50:02;4.50;99.90
23683;DHT22;24897;53.514;10.482;2023-02-01T15:52:48;4.50;99.90
23683;DHT22;24897;53.514;10.482;2023-02-01T15:55:37;4.50;99.90
23683;DHT22;24897;53.514;10.482;2023-02-01T15:58:23;4.60;99.90
23683;DHT22;24897;53.514;10.482;2023-02-01T16:01:11;4.60;99.90
23683;DHT22;24897;53.514;10.482;2023-02-01T16:07:03;4.70;99.90
23683;DHT22;24897;53.514;10.482;2023-02-01T16:09:54;4.70;99.90
23683;DHT22;24897;53.514;10.482;2023-02-01T16:15:24;4.80;99.90
23683;DHT22;24897;53.514;10.482;2023-02-01T16:18:09;4.80;99.90
23683;DHT22;24897;53.514;10.482;2023-02-01T16:20:53;4.80;99.90
23683;DHT22;24897;53.514;10.482;2023-02-01T16:23:37;4.80;99.90
23683;DHT22;24897;53.514;10.482;2023-02-01T16:26:22;4.80;99.90
23683;DHT22;24897;53.514;10.482;2023-02-01T16:29:06;4.80;99.90
23683;DHT22;24897;53.514;10.482;2023-02-01T16:31:50;4.80;99.90
23683;DHT22;24897;53.514;10.482;2023-02-01T16:34:35;4.90;99.90
23683;DHT22;24897;53.514;10.482;2023-02-01T16:37:21;4.80;99.90
23683;DHT22;24897;53.514;10.482;2023-02-01T16:40:17;4.90;99.90
23683;DHT22;24897;53.514;10.482;2023-02-01T16:43:01;4.80;99.90
23683;DHT22;24897;53.514;10.482;2023-02-01T16:45:48;5.00;99.90
23683;DHT22;24897;53.514;10.482;2023-02-01T16:48:35;4.80;99.90
23683;DHT22;24897;53.514;10.482;2023-02-01T16:51:21;4.80;99.90
23683;DHT22;24897;53.514;10.482;2023-02-01T16:54:07;4.80;99.90
23683;DHT22;24897;53.514;10.482;2023-02-01T16:56:52;4.80;99.90
23683;DHT22;24897;53.514;10.482;2023-02-01T16:59:38;5.00;99.90
23683;DHT22;24897;53.514;10.482;2023-02-01T17:02:22;4.80;99.90
23683;DHT22;24897;53.514;10.482;2023-02-01T17:05:08;4.90;99.90
23683;DHT22;24897;53.514;10.482;2023-02-01T17:07:53;4.80;99.90
23683;DHT22;24897;53.514;10.482;2023-02-01T17:10:37;4.80;99.90
23683;DHT22;24897;53.514;10.482;2023-02-01T17:13:21;4.80;99.90
23683;DHT22;24897;53.514;10.482;2023-02-01T17:16:18;4.90;99.90
23683;DHT22;24897;53.514;10.482;2023-02-01T17:19:06;4.80;99.90
23683;DHT22;24897;53.514;10.482;2023-02-01T17:21:54;4.70;99.90
23683;DHT22;24897;53.514;10.482;2023-02-01T17:24:39;4.70;99.90
23683;DHT22;24897;53.514;10.482;2023-02-01T17:27:23;4.80;99.90
23683;DHT22;24897;53.514;10.482;2023-02-01T17:30:09;4.70;99.90
23683;DHT22;24897;53.514;10.482;2023-02-01T17:32:53;4.80;99.90
23683;DHT22;24897;53.514;10.482;2023-02-01T17:35:39;4.80;99.90
23683;DHT22;24897;53.514;10.482;2023-02-01T17:38:24;4.80;99.90
23683;DHT22;24897;53.514;10.482;2023-02-01T17:41:12;4.80;99.90
23683;DHT22;24897;53.514;10.482;2023-02-01T17:43:57;4.90;99.90
23683;DHT22;24897;53.514;10.482;2023-02-01T17:46:41;4.90;99.90
23683;DHT22;24897;53.514;10.482;2023-02-01T17:49:25;4.90;99.90
23683;DHT22;24897;53.514;10.482;2023-02-01T17:52:16;5.00;99.90
23683;DHT22;24897;53.514;10.482;2023-02-01T17:55:01;5.00;99.90
23683;DHT22;24897;53.514;10.482;2023-02-01T17:57:48;5.10;99.90
23683;DHT22;24897;53.514;10.482;2023-02-01T18:00:33;5.10;99.90
23683;DHT22;24897;53.514;10.482;2023-02-01T18:03:25;5.20;99.90
23683;DHT22;24897;53.514;10.482;2023-02-01T18:06:18;5.30;99.90
23683;DHT22;24897;53.514;10.482;2023-02-01T18:09:04;5.30;99.90
23683;DHT22;24897;53.514;10.482;2023-02-01T18:11:48;5.30;99.90
23683;DHT22;24897;53.514;10.482;2023-02-01T18:14:33;5.40;99.90
23683;DHT22;24897;53.514;10.482;2023-02-01T18:17:17;5.40;99.90
23683;DHT22;24897;53.514;10.482;2023-02-01T18:20:01;5.40;99.90
23683;DHT22;24897;53.514;10.482;2023-02-01T18:22:45;5.50;99.90
23683;DHT22;24897;53.514;10.482;2023-02-01T18:25:33;5.40;99.90
23683;DHT22;24897;53.514;10.482;2023-02-01T18:28:21;5.50;99.90
23683;DHT22;24897;53.514;10.482;2023-02-01T18:31:05;5.50;99.90
23683;DHT22;24897;53.514;10.482;2023-02-01T18:33:50;5.60;99.90
23683;DHT22;24897;53.514;10.482;2023-02-01T18:36:35;5.50;99.90
23683;DHT22;24897;53.514;10.482;2023-02-01T18:39:20;5.60;99.90
23683;DHT22;24897;53.514;10.482;2023-02-01T18:42:04;5.60;99.90
23683;DHT22;24897;53.514;10.482;2023-02-01T18:44:48;5.60;99.90
23683;DHT22;24897;53.514;10.482;2023-02-01T18:47:32;5.60;99.90
23683;DHT22;24897;53.514;10.482;2023-02-01T18:50:17;5.60;99.90
23683;DHT22;24897;53.514;10.482;2023-02-01T18:53:03;5.60;99.90
23683;DHT22;24897;53.514;10.482;2023-02-01T18:55:48;5.60;99.90
23683;DHT22;24897;53.514;10.482;2023-02-01T18:58:33;5.60;99.90
23683;DHT22;24897;53.514;10.482;2023-02-01T19:01:19;5.60;99.90
23683;DHT22;24897;53.514;10.482;2023-02-01T19:04:04;5.60;99.90
23683;DHT22;24897;53.514;10.482;2023-02-01T19:06:49;5.60;99.90
23683;DHT22;24897;53.514;10.482;2023-02-01T19:09:33;5.60;99.90
23683;DHT22;24897;53.514;10.482;2023-02-01T19:12:18;5.60;99.90
23683;DHT22;24897;53.514;10.482;2023-02-01T19:15:05;5.70;99.90
23683;DHT22;24897;53.514;10.482;2023-02-01T19:17:52;5.60;99.90
23683;DHT22;24897;53.514;10.482;2023-02-01T19:20:39;5.50;99.90
23683;DHT22;24897;53.514;10.482;2023-02-01T19:23:24;5.50;99.90
23683;DHT22;24897;53.514;10.482;2023-02-01T19:26:10;5.50;99.90
23683;DHT22;24897;53.514;10.482;2023-02-01T19:28:57;5.40;99.90
23683;DHT22;24897;53.514;10.482;2023-02-01T19:31:41;5.40;99.90
23683;DHT22;24897;53.514;10.482;2023-02-01T19:34:27;5.50;99.90
23683;DHT22;24897;53.514;10.482;2023-02-01T19:37:11;5.40;99.90
23683;DHT22;24897;53.514;10.482;2023-02-01T19:39:55;5.40;99.90
23683;DHT22;24897;53.514;10.482;2023-02-01T19:42:41;5.40;99.90
23683;DHT22;24897;53.514;10.482;2023-02-01T19:45:25;5.40;99.90
23683;DHT22;24897;53.514;10.482;2023-02-01T19:48:10;5.40;99.90
23683;DHT22;24897;53.514;10.482;2023-02-01T19:50:56;5.50;99.90
23683;DHT22;24897;53.514;10.482;2023-02-01T19:53:42;5.70;99.90
23683;DHT22;24897;53.514;10.482;2023-02-01T19:56:26;5.50;99.90
23683;DHT22;24897;53.514;10.482;2023-02-01T19:59:11;5.60;99.90
23683;DHT22;24897;53.514;10.482;2023-02-01T20:01:56;5.70;99.90
23683;DHT22;24897;53.514;10.482;2023-02-01T20:04:40;5.70;99.90
23683;DHT22;24897;53.514;10.482;2023-02-01T20:07:24;5.70;99.90
23683;DHT22;24897;53.514;10.482;2023-02-01T20:10:09;6.00;99.90
23683;DHT22;24897;53.514;10.482;2023-02-01T20:12:53;5.60;99.90